createdAt,value
2018-01-27T00:00:39.895Z,12.67
2018-01-27T00:03:07.327Z,14.73
2018-01-27T00:05:35.531Z,14.10
2018-01-27T00:08:03.007Z,12.33
2018-01-27T00:10:31.172Z,13.53
2018-01-27T00:12:58.614Z,13.00
2018-01-27T00:15:26.814Z,12.50
2018-01-27T00:17:54.284Z,13.47
2018-01-27T00:20:22.481Z,16.70
2018-01-27T00:22:51.959Z,19.33
2018-01-27T00:25:19.394Z,15.73
2018-01-27T00:27:46.832Z,15.43
2018-01-27T00:30:15.041Z,14.23
2018-01-27T00:32:42.476Z,16.50
2018-01-27T00:35:09.911Z,13.37
2018-01-27T00:37:38.112Z,15.33
2018-01-27T00:40:05.543Z,12.90
2018-01-27T00:42:33.743Z,13.90
2018-01-27T00:45:01.168Z,12.27
2018-01-27T00:47:28.613Z,11.70
2018-01-27T00:49:56.088Z,10.70
2018-01-27T00:52:24.287Z,11.77
2018-01-27T00:54:51.716Z,10.40
2018-01-27T00:57:19.148Z,12.80
2018-01-27T00:59:46.588Z,10.17
2018-01-27T01:02:14.020Z,11.77
2018-01-27T01:04:41.464Z,11.90
2018-01-27T01:07:09.664Z,10.97
2018-01-27T01:09:37.108Z,11.20
2018-01-27T01:12:04.531Z,11.53
2018-01-27T01:14:32.732Z,12.23
2018-01-27T01:17:00.169Z,12.40
2018-01-27T01:19:28.378Z,12.20
2018-01-27T01:21:55.804Z,12.93
2018-01-27T01:24:24.076Z,11.63
2018-01-27T01:26:52.281Z,11.37
2018-01-27T01:29:19.716Z,13.40
2018-01-27T01:31:47.925Z,12.40
2018-01-27T01:34:15.368Z,12.40
2018-01-27T01:36:42.820Z,13.20
2018-01-27T01:39:10.255Z,13.03
2018-01-27T01:41:38.456Z,13.73
2018-01-27T01:44:11.484Z,10.97
2018-01-27T01:46:38.925Z,12.37
2018-01-27T01:49:18.263Z,12.40
2018-01-27T01:51:45.707Z,10.40
2018-01-27T01:54:13.152Z,10.40
2018-01-27T01:56:40.576Z,9.67
2018-01-27T01:59:08.780Z,9.57
2018-01-27T02:01:36.216Z,9.67
2018-01-27T02:04:04.411Z,11.10
2018-01-27T02:06:31.836Z,10.30
2018-01-27T02:08:59.272Z,10.50
2018-01-27T02:11:26.709Z,11.80
2018-01-27T02:13:54.213Z,12.70
2018-01-27T02:16:22.435Z,12.23
2018-01-27T02:18:49.869Z,12.77
2018-01-27T02:21:17.300Z,11.00
2018-01-27T02:23:45.499Z,10.60
2018-01-27T02:26:12.945Z,10.23
2018-01-27T02:28:41.153Z,11.07
2018-01-27T02:31:08.588Z,10.43
2018-01-27T02:33:36.016Z,10.77
2018-01-27T02:36:04.136Z,11.33
2018-01-27T02:38:31.560Z,10.37
2018-01-27T02:40:59.771Z,11.00
2018-01-27T02:43:27.202Z,11.60
2018-01-27T02:45:54.639Z,11.60
2018-01-27T02:48:22.834Z,11.37
2018-01-27T02:50:50.263Z,13.17
2018-01-27T02:53:17.694Z,11.17
2018-01-27T02:55:45.139Z,11.63
2018-01-27T02:58:12.568Z,11.70
2018-01-27T03:00:40.005Z,11.27
2018-01-27T03:03:08.241Z,11.90
2018-01-27T03:05:35.679Z,10.90
2018-01-27T03:08:03.111Z,11.67
2018-01-27T03:10:30.550Z,11.00
2018-01-27T03:12:58.744Z,10.70
2018-01-27T03:15:26.176Z,10.30
2018-01-27T03:17:54.370Z,10.07
2018-01-27T03:20:21.799Z,9.53
2018-01-27T03:22:49.229Z,11.97
2018-01-27T03:25:16.657Z,9.70
2018-01-27T03:27:44.095Z,11.93
2018-01-27T03:30:11.527Z,11.53
2018-01-27T03:32:38.959Z,10.93
2018-01-27T03:35:06.383Z,10.40
2018-01-27T03:37:33.818Z,9.10
2018-01-27T03:40:02.020Z,10.70
2018-01-27T03:42:29.451Z,9.73
2018-01-27T03:44:56.879Z,9.33
2018-01-27T03:47:24.305Z,9.03
2018-01-27T03:49:51.736Z,9.93
2018-01-27T03:52:19.154Z,9.13
2018-01-27T03:54:46.603Z,12.63
2018-01-27T03:57:14.031Z,12.53
2018-01-27T03:59:41.463Z,13.37
2018-01-27T04:02:08.903Z,13.67
2018-01-27T04:04:37.163Z,13.10
2018-01-27T04:07:05.403Z,12.77
2018-01-27T04:09:32.790Z,13.90
2018-01-27T04:12:00.219Z,12.60
2018-01-27T04:14:27.659Z,14.50
2018-01-27T04:16:55.086Z,13.53
2018-01-27T04:19:22.530Z,13.00
2018-01-27T04:21:50.720Z,12.10
2018-01-27T04:24:18.146Z,11.33
2018-01-27T04:26:45.571Z,11.87
2018-01-27T04:29:13.013Z,11.17
2018-01-27T04:31:40.439Z,12.33
2018-01-27T04:34:07.885Z,10.30
2018-01-27T04:36:36.079Z,11.30
2018-01-27T04:39:03.510Z,10.40
2018-01-27T04:41:31.705Z,10.00
2018-01-27T04:43:59.138Z,10.97
2018-01-27T04:46:26.568Z,10.80
2018-01-27T04:48:54.002Z,9.80
2018-01-27T04:51:21.457Z,10.20
2018-01-27T04:53:48.870Z,10.33
2018-01-27T04:56:17.078Z,9.90
2018-01-27T04:58:44.507Z,9.23
2018-01-27T05:01:12.698Z,9.43
2018-01-27T05:03:40.131Z,9.80
2018-01-27T05:06:08.323Z,10.20
2018-01-27T05:08:36.528Z,12.00
2018-01-27T05:11:03.972Z,9.77
2018-01-27T05:13:31.398Z,10.97
2018-01-27T05:15:58.818Z,9.10
2018-01-27T05:18:26.254Z,9.40
2018-01-27T05:20:53.691Z,10.53
2018-01-27T05:23:21.119Z,10.10
2018-01-27T05:25:49.335Z,11.57
2018-01-27T05:28:16.750Z,10.13
2018-01-27T05:30:44.178Z,9.87
2018-01-27T05:33:11.653Z,11.63
2018-01-27T05:35:39.097Z,11.30
2018-01-27T05:38:06.535Z,10.77
2018-01-27T05:40:33.967Z,9.50
2018-01-27T05:43:01.403Z,11.33
2018-01-27T05:45:29.604Z,9.40
2018-01-27T05:47:57.030Z,8.77
2018-01-27T05:50:25.229Z,10.57
2018-01-27T05:52:52.647Z,9.17
2018-01-27T05:55:20.094Z,9.90
2018-01-27T05:57:47.519Z,10.40
2018-01-27T06:00:14.952Z,9.30
2018-01-27T06:02:42.379Z,10.20
2018-01-27T06:05:10.584Z,11.17
2018-01-27T06:07:38.026Z,11.00
2018-01-27T06:10:06.219Z,9.17
2018-01-27T06:12:33.646Z,10.50
2018-01-27T06:15:01.066Z,8.90
2018-01-27T06:17:28.507Z,9.47
2018-01-27T06:19:55.933Z,9.43
2018-01-27T06:22:23.389Z,10.50
2018-01-27T06:24:51.582Z,11.20
2018-01-27T06:27:19.034Z,9.00
2018-01-27T06:29:46.456Z,10.17
2018-01-27T06:32:13.890Z,10.30
2018-01-27T06:34:41.316Z,9.67
2018-01-27T06:37:08.760Z,10.50
2018-01-27T06:39:36.187Z,11.37
2018-01-27T06:42:03.622Z,18.00
2018-01-27T06:44:31.056Z,18.47
2018-01-27T06:46:58.488Z,15.30
2018-01-27T06:49:25.934Z,14.90
2018-01-27T06:51:53.373Z,16.33
2018-01-27T06:54:21.570Z,13.97
2018-01-27T06:56:48.999Z,14.63
2018-01-27T06:59:16.435Z,15.67
2018-01-27T07:01:43.879Z,13.93
2018-01-27T07:04:11.303Z,18.30
2018-01-27T07:06:38.743Z,15.03
2018-01-27T07:09:06.968Z,15.50
2018-01-27T07:11:34.384Z,14.83
2018-01-27T07:14:01.852Z,17.67
2018-01-27T07:16:29.294Z,14.10
2018-01-27T07:18:57.483Z,14.60
2018-01-27T07:21:24.909Z,17.07
2018-01-27T07:23:53.111Z,12.40
2018-01-27T07:26:20.548Z,13.50
2018-01-27T07:28:49.740Z,17.00
2018-01-27T07:31:17.959Z,11.70
2018-01-27T07:33:45.376Z,12.73
2018-01-27T07:36:13.590Z,14.03
2018-01-27T07:38:41.012Z,12.00
2018-01-27T07:41:09.221Z,13.97
2018-01-27T07:43:36.634Z,11.07
2018-01-27T07:46:08.290Z,13.40
2018-01-27T07:48:36.499Z,15.87
2018-01-27T07:51:03.930Z,14.57
2018-01-27T07:53:32.126Z,14.63
2018-01-27T07:55:59.559Z,13.80
2018-01-27T07:58:27.758Z,16.87
2018-01-27T08:00:55.191Z,16.07
2018-01-27T08:03:24.382Z,12.07
2018-01-27T08:05:52.667Z,13.80
2018-01-27T08:08:20.859Z,12.30
2018-01-27T08:10:48.309Z,12.80
2018-01-27T08:13:16.514Z,13.80
2018-01-27T08:15:43.935Z,13.93
2018-01-27T08:18:12.129Z,15.63
2018-01-27T08:20:39.562Z,14.70
2018-01-27T08:23:07.828Z,12.30
2018-01-27T08:25:36.046Z,12.47
2018-01-27T08:28:03.467Z,14.30
2018-01-27T08:30:31.668Z,13.40
2018-01-27T08:32:59.097Z,15.40
2018-01-27T08:35:27.296Z,15.40
2018-01-27T08:37:54.738Z,16.77
2018-01-27T08:40:22.943Z,15.37
2018-01-27T08:42:50.355Z,15.97
2018-01-27T08:45:18.559Z,16.80
2018-01-27T08:47:45.994Z,18.73
2018-01-27T08:50:14.190Z,11.53
2018-01-27T08:52:41.652Z,13.03
2018-01-27T08:55:09.058Z,13.13
2018-01-27T08:57:36.486Z,12.67
2018-01-27T09:00:03.927Z,13.13
2018-01-27T09:02:31.352Z,16.97
2018-01-27T09:04:59.543Z,12.47
2018-01-27T09:07:26.968Z,13.50
2018-01-27T09:09:54.400Z,11.57
2018-01-27T09:12:21.864Z,11.53
2018-01-27T09:14:49.307Z,10.10
2018-01-27T09:17:16.741Z,12.03
2018-01-27T09:19:44.176Z,15.43
2018-01-27T09:22:12.367Z,13.73
2018-01-27T09:24:39.807Z,12.03
2018-01-27T09:27:08.007Z,12.60
2018-01-27T09:29:35.439Z,9.50
2018-01-27T09:32:03.644Z,11.07
2018-01-27T09:34:31.087Z,14.30
2018-01-27T09:36:58.518Z,14.80
2018-01-27T09:39:26.726Z,11.63
2018-01-27T09:41:54.163Z,12.10
2018-01-27T09:44:22.357Z,13.80
2018-01-27T09:46:49.793Z,15.27
2018-01-27T09:49:18.004Z,13.27
2018-01-27T09:51:45.436Z,13.83
2018-01-27T09:54:12.873Z,14.20
2018-01-27T09:56:41.067Z,12.30
2018-01-27T09:59:08.495Z,11.97
2018-01-27T10:01:36.694Z,12.30
2018-01-27T10:04:04.128Z,15.10
2018-01-27T10:06:32.326Z,12.83
2018-01-27T10:08:59.759Z,12.20
2018-01-27T10:11:29.991Z,13.60
2018-01-27T10:13:58.200Z,14.50
2018-01-27T10:16:25.628Z,16.80
2018-01-27T10:18:53.821Z,14.30
2018-01-27T10:21:21.258Z,13.73
2018-01-27T10:23:49.447Z,14.30
2018-01-27T10:26:16.874Z,15.90
2018-01-27T10:28:45.075Z,15.30
2018-01-27T10:31:12.522Z,13.97
2018-01-27T10:33:40.728Z,14.00
2018-01-27T10:36:08.164Z,15.13
2018-01-27T10:38:35.590Z,16.43
2018-01-27T10:41:03.048Z,14.73
2018-01-27T10:43:30.479Z,15.27
2018-01-27T10:45:57.910Z,15.70
2018-01-27T10:48:25.335Z,14.20
2018-01-27T10:50:54.515Z,15.87
2018-01-27T10:53:21.943Z,16.17
2018-01-27T10:55:49.388Z,15.97
2018-01-27T10:58:16.820Z,14.13
2018-01-27T11:00:48.132Z,15.07
2018-01-27T11:03:15.549Z,14.20
2018-01-27T11:05:42.986Z,15.20
2018-01-27T11:08:10.407Z,17.67
2018-01-27T11:10:37.839Z,13.50
2018-01-27T11:13:05.368Z,13.10
2018-01-27T11:15:32.845Z,13.20
2018-01-27T11:18:00.269Z,15.30
2018-01-27T11:20:27.695Z,16.90
2018-01-27T11:22:55.896Z,15.90
2018-01-27T11:25:23.335Z,14.97
2018-01-27T11:27:51.551Z,14.83
2018-01-27T11:30:18.968Z,14.50
2018-01-27T11:32:48.159Z,15.40
2018-01-27T11:35:16.345Z,14.50
2018-01-27T11:37:46.212Z,14.50
2018-01-27T11:40:13.647Z,14.90
2018-01-27T11:42:41.083Z,14.57
2018-01-27T11:45:08.525Z,16.67
2018-01-27T11:47:35.951Z,16.57
2018-01-27T11:50:03.386Z,15.27
2018-01-27T11:52:30.851Z,15.80
2018-01-27T11:54:58.305Z,16.30
2018-01-27T11:57:25.703Z,17.13
2018-01-27T11:59:53.901Z,14.17
2018-01-27T12:02:21.334Z,15.20
2018-01-27T12:04:49.536Z,17.17
2018-01-27T12:07:16.966Z,14.87
2018-01-27T12:09:45.168Z,17.57
2018-01-27T12:12:12.595Z,15.73
2018-01-27T12:14:40.787Z,15.20
2018-01-27T12:17:08.986Z,15.13
2018-01-27T12:19:36.418Z,14.10
2018-01-27T12:22:04.618Z,15.60
2018-01-27T12:24:32.050Z,15.63
2018-01-27T12:26:59.484Z,15.07
2018-01-27T12:29:26.923Z,16.73
2018-01-27T12:31:54.347Z,16.60
2018-01-27T12:34:21.783Z,16.53
2018-01-27T12:36:49.206Z,16.10
2018-01-27T12:39:16.640Z,16.33
2018-01-27T12:41:44.076Z,18.27
2018-01-27T12:44:11.533Z,17.93
2018-01-27T12:46:38.971Z,17.10
2018-01-27T12:49:06.408Z,15.80
2018-01-27T12:51:34.596Z,17.77
2018-01-27T12:54:02.033Z,18.23
2018-01-27T12:56:30.223Z,17.10
2018-01-27T12:58:57.658Z,17.53
2018-01-27T13:01:25.087Z,17.13
2018-01-27T13:03:52.512Z,18.07
2018-01-27T13:06:19.936Z,17.30
2018-01-27T13:08:48.133Z,18.40
2018-01-27T13:11:15.565Z,19.50
2018-01-27T13:13:43.782Z,18.00
2018-01-27T13:16:11.218Z,21.27
2018-01-27T13:18:38.646Z,18.77
2018-01-27T13:21:06.080Z,21.43
2018-01-27T13:23:33.510Z,19.40
2018-01-27T13:26:00.938Z,20.13
2018-01-27T13:28:29.123Z,19.40
2018-01-27T13:30:56.551Z,18.13
2018-01-27T13:33:24.750Z,20.77
2018-01-27T13:35:52.183Z,19.40
2018-01-27T13:38:20.379Z,19.80
2018-01-27T13:40:47.811Z,20.50
2018-01-27T13:43:15.233Z,19.33
2018-01-27T13:45:42.681Z,19.70
2018-01-27T13:48:10.125Z,18.73
2018-01-27T13:50:37.530Z,19.00
2018-01-27T13:53:04.963Z,18.40
2018-01-27T13:55:32.401Z,18.20
2018-01-27T13:57:59.833Z,20.60
2018-01-27T14:00:27.259Z,21.93
2018-01-27T14:02:54.691Z,17.73
2018-01-27T14:05:22.127Z,19.07
2018-01-27T14:07:49.571Z,19.33
2018-01-27T14:10:16.999Z,21.07
2018-01-27T14:12:45.190Z,17.63
2018-01-27T14:15:12.627Z,21.00
2018-01-27T14:17:40.085Z,19.90
2018-01-27T14:20:08.276Z,19.93
2018-01-27T14:22:36.484Z,20.43
2018-01-27T14:25:03.910Z,22.50
2018-01-27T14:27:31.346Z,21.47
2018-01-27T14:29:58.777Z,22.07
2018-01-27T14:32:26.220Z,18.87
2018-01-27T14:34:53.648Z,19.60
2018-01-27T14:37:21.070Z,20.80
2018-01-27T14:39:48.510Z,21.50
2018-01-27T14:42:15.939Z,19.83
2018-01-27T14:44:43.367Z,21.07
2018-01-27T14:47:10.791Z,19.80
2018-01-27T14:49:38.226Z,20.43
2018-01-27T14:52:05.662Z,19.83
2018-01-27T14:54:33.089Z,21.00
2018-01-27T14:57:01.279Z,20.77
2018-01-27T14:59:28.719Z,22.27
2018-01-27T15:01:56.921Z,20.33
2018-01-27T15:04:24.352Z,18.13
2018-01-27T15:06:52.553Z,17.40
2018-01-27T15:09:19.987Z,19.20
2018-01-27T15:11:48.198Z,15.70
2018-01-27T15:14:15.624Z,16.63
2018-01-27T15:16:43.054Z,18.20
2018-01-27T15:19:11.261Z,18.50
2018-01-27T15:21:38.687Z,16.00
2018-01-27T15:24:06.883Z,17.13
2018-01-27T15:26:34.315Z,17.03
2018-01-27T15:29:02.509Z,17.23
2018-01-27T15:31:30.710Z,16.97
2018-01-27T15:33:58.135Z,18.13
2018-01-27T15:36:26.327Z,16.60
2018-01-27T15:38:53.756Z,16.63
2018-01-27T15:41:21.964Z,17.57
2018-01-27T15:43:49.395Z,18.57
2018-01-27T15:46:17.605Z,18.20
2018-01-27T15:48:45.019Z,20.20
2018-01-27T15:51:13.283Z,18.80
2018-01-27T15:53:40.695Z,16.83
2018-01-27T15:56:09.230Z,20.87
2018-01-27T15:58:36.655Z,19.83
2018-01-27T16:01:04.094Z,17.00
2018-01-27T16:03:31.532Z,20.17
2018-01-27T16:05:58.968Z,20.17
2018-01-27T16:08:27.229Z,20.63
2018-01-27T16:10:54.662Z,18.17
2018-01-27T16:13:22.093Z,24.80
2018-01-27T16:15:49.607Z,23.20
2018-01-27T16:18:17.791Z,21.20
2018-01-27T16:20:45.996Z,20.43
2018-01-27T16:23:13.414Z,23.27
2018-01-27T16:25:41.615Z,25.20
2018-01-27T16:28:09.035Z,22.20
2018-01-27T16:30:36.464Z,23.23
2018-01-27T16:33:06.060Z,24.47
2018-01-27T16:35:33.571Z,27.33
2018-01-27T16:38:01.774Z,24.97
2018-01-27T16:40:29.200Z,28.73
2018-01-27T16:42:57.400Z,29.03
2018-01-27T16:45:24.836Z,26.30
2018-01-27T16:47:53.027Z,28.07
2018-01-27T16:50:20.455Z,24.60
2018-01-27T16:52:47.891Z,25.13
2018-01-27T16:55:15.323Z,26.57
2018-01-27T16:57:50.972Z,25.47
2018-01-27T17:00:19.500Z,25.87
2018-01-27T17:02:46.935Z,26.43
2018-01-27T17:05:14.408Z,25.23
2018-01-27T17:07:41.834Z,26.60
2018-01-27T17:10:09.344Z,28.23
2018-01-27T17:12:37.644Z,25.80
2018-01-27T17:15:05.070Z,29.97
2018-01-27T17:17:33.284Z,30.10
2018-01-27T17:20:00.702Z,28.13
2018-01-27T17:22:28.921Z,29.60
2018-01-27T17:24:56.343Z,25.17
2018-01-27T17:27:24.538Z,28.17
2018-01-27T17:29:51.968Z,28.13
2018-01-27T17:32:20.159Z,28.90
2018-01-27T17:34:47.590Z,31.90
2018-01-27T17:37:15.028Z,29.37
2018-01-27T17:39:42.463Z,28.93
2018-01-27T17:42:09.910Z,30.80
2018-01-27T17:44:37.344Z,32.57
2018-01-27T17:47:04.787Z,32.97
2018-01-27T17:49:32.982Z,37.87
2018-01-27T17:52:00.422Z,32.70
2018-01-27T17:54:28.615Z,36.70
2018-01-27T17:56:56.095Z,32.53
2018-01-27T17:59:23.534Z,37.17
2018-01-27T18:01:50.971Z,37.37
2018-01-27T18:04:19.177Z,39.13
2018-01-27T18:06:46.627Z,36.10
2018-01-27T18:09:14.050Z,35.23
2018-01-27T18:11:42.270Z,38.67
2018-01-27T18:14:09.695Z,37.17
2018-01-27T18:16:37.907Z,31.87
2018-01-27T18:19:05.955Z,35.73
2018-01-27T18:21:33.947Z,34.80
2018-01-27T18:24:01.365Z,32.60
2018-01-27T18:26:29.566Z,35.00
2018-01-27T18:28:56.984Z,29.63
2018-01-27T18:31:24.416Z,31.77
2018-01-27T18:33:51.854Z,33.13
2018-01-27T18:36:19.279Z,32.17
2018-01-27T18:38:46.708Z,33.30
2018-01-27T18:41:14.912Z,33.77
2018-01-27T18:43:42.331Z,31.80
2018-01-27T18:46:09.768Z,34.43
2018-01-27T18:48:37.203Z,31.43
2018-01-27T18:51:04.635Z,32.47
2018-01-27T18:53:32.076Z,34.60
2018-01-27T18:56:02.296Z,31.87
2018-01-27T18:58:30.499Z,33.80
2018-01-27T19:00:57.928Z,34.40
2018-01-27T19:03:26.135Z,36.80
2018-01-27T19:05:53.558Z,40.50
2018-01-27T19:08:21.766Z,41.73
2018-01-27T19:10:49.247Z,46.20
2018-01-27T19:13:17.407Z,45.83
2018-01-27T19:15:44.844Z,46.57
2018-01-27T19:18:12.274Z,49.03
2018-01-27T19:20:40.475Z,45.53
2018-01-27T19:23:08.687Z,46.17
2018-01-27T19:25:36.114Z,47.50
2018-01-27T19:28:03.551Z,47.60
2018-01-27T19:30:31.762Z,48.67
2018-01-27T19:32:59.187Z,50.77
2018-01-27T19:35:26.628Z,44.80
2018-01-27T19:37:54.058Z,47.60
2018-01-27T19:40:21.487Z,48.23
2018-01-27T19:42:48.940Z,45.97
2018-01-27T19:45:16.390Z,47.17
2018-01-27T19:47:43.818Z,43.30
2018-01-27T19:50:12.086Z,42.40
2018-01-27T19:52:40.290Z,39.20
2018-01-27T19:55:07.734Z,37.27
2018-01-27T19:57:35.937Z,39.93
2018-01-27T20:00:03.359Z,38.87
2018-01-27T20:02:31.566Z,40.87
2018-01-27T20:04:58.994Z,41.40
2018-01-27T20:07:27.212Z,40.30
2018-01-27T20:09:54.643Z,36.67
2018-01-27T20:12:22.134Z,41.40
2018-01-27T20:14:49.519Z,40.77
2018-01-27T20:17:17.464Z,39.00
2018-01-27T20:28:55.092Z,41.80
2018-01-27T20:31:22.536Z,40.67
2018-01-27T20:33:49.990Z,44.90
2018-01-27T20:36:17.446Z,43.70
2018-01-27T20:38:44.896Z,41.90
2018-01-27T20:41:12.339Z,42.90
2018-01-27T20:43:40.558Z,45.80
2018-01-27T20:46:08.002Z,38.37
2018-01-27T20:48:35.464Z,42.30
2018-01-27T20:51:04.943Z,42.40
2018-01-27T20:53:32.409Z,42.90
2018-01-27T20:55:59.846Z,42.60
2018-01-27T20:58:28.139Z,41.33
2018-01-27T21:00:55.665Z,39.90
2018-01-27T21:03:23.142Z,40.73
2018-01-27T21:05:51.360Z,40.80
2018-01-27T21:08:18.825Z,40.60
2018-01-27T21:10:46.269Z,38.83
2018-01-27T21:13:14.717Z,37.80
2018-01-27T21:15:42.936Z,40.30
2018-01-27T21:18:10.387Z,38.63
2018-01-27T21:20:38.843Z,38.33
2018-01-27T21:23:06.304Z,41.93
2018-01-27T21:25:33.742Z,36.50
2018-01-27T21:28:03.977Z,36.27
2018-01-27T21:30:31.419Z,37.10
2018-01-27T21:32:59.631Z,41.50
2018-01-27T21:35:27.071Z,36.53
2018-01-27T21:37:54.516Z,35.20
2018-01-27T21:40:22.724Z,34.50
2018-01-27T21:42:50.178Z,33.53
2018-01-27T21:45:17.635Z,34.57
2018-01-27T21:47:45.090Z,35.33
2018-01-27T21:50:12.549Z,35.77
2018-01-27T21:52:40.006Z,36.93
2018-01-27T21:55:08.473Z,35.77
2018-01-27T21:57:35.920Z,34.50
2018-01-27T22:00:03.357Z,35.23
2018-01-27T22:02:31.575Z,35.10
2018-01-27T22:04:59.027Z,33.77
2018-01-27T22:07:27.285Z,33.97
2018-01-27T22:09:54.724Z,33.10
2018-01-27T22:12:22.941Z,30.03
2018-01-27T22:14:50.392Z,33.83
2018-01-27T22:17:17.833Z,28.63
2018-01-27T22:19:45.277Z,30.37
2018-01-27T22:22:13.495Z,31.77
2018-01-27T22:24:40.932Z,30.93
2018-01-27T22:27:08.381Z,30.53
2018-01-27T22:29:35.841Z,28.20
2018-01-27T22:32:03.332Z,27.17
2018-01-27T22:34:30.784Z,26.13
2018-01-27T22:36:58.234Z,28.77
2018-01-27T22:39:25.682Z,27.67
2018-01-27T22:41:53.124Z,29.47
2018-01-27T22:44:20.576Z,30.07
2018-01-27T22:46:48.795Z,28.13
2018-01-27T22:49:16.244Z,25.90
2018-01-27T22:51:43.685Z,28.77
2018-01-27T22:54:11.131Z,28.07
2018-01-27T22:56:38.574Z,27.10
2018-01-27T22:59:06.783Z,28.97
2018-01-27T23:01:34.225Z,30.93
2018-01-27T23:04:01.668Z,31.07
2018-01-27T23:06:29.107Z,30.40
2018-01-27T23:08:56.565Z,30.57
2018-01-27T23:11:24.768Z,31.23
2018-01-27T23:13:52.260Z,29.23
2018-01-27T23:16:19.698Z,28.30
2018-01-27T23:18:47.143Z,29.50
2018-01-27T23:21:14.586Z,30.20
2018-01-27T23:23:42.796Z,28.27
2018-01-27T23:26:10.245Z,30.33
2018-01-27T23:28:37.700Z,32.47
2018-01-27T23:31:06.178Z,30.23
2018-01-27T23:33:33.622Z,33.60
2018-01-27T23:36:01.068Z,29.07
2018-01-27T23:38:29.288Z,31.37
2018-01-27T23:40:56.722Z,28.60
2018-01-27T23:43:24.167Z,27.17
2018-01-27T23:45:51.612Z,27.07
2018-01-27T23:48:19.832Z,28.60
2018-01-27T23:50:48.033Z,27.10
2018-01-27T23:53:15.479Z,26.30
2018-01-27T23:55:42.924Z,26.07
2018-01-27T23:58:10.378Z,26.97
